createdAt,value
2022-09-09T00:02:25.858Z,16.40
2022-09-09T00:05:29.000Z,13.50
2022-09-09T00:10:42.964Z,11.00
2022-09-09T00:16:00.381Z,12.70
2022-09-09T00:18:51.669Z,10.10
2022-09-09T00:21:25.790Z,10.70
2022-09-09T00:23:56.329Z,9.10
2022-09-09T00:26:40.037Z,10.10
2022-09-09T00:29:54.995Z,10.50
2022-09-09T00:32:25.426Z,11.50
2022-09-09T00:35:00.451Z,9.60
2022-09-09T00:37:36.197Z,11.70
2022-09-09T00:40:24.776Z,11.00
2022-09-09T00:43:20.530Z,13.00
2022-09-09T00:46:36.117Z,12.90
2022-09-09T00:49:37.110Z,12.00
2022-09-09T00:52:13.657Z,7.90
2022-09-09T00:55:04.491Z,10.50
2022-09-09T00:57:38.097Z,7.70
2022-09-09T01:00:32.778Z,16.10
2022-09-09T01:03:43.112Z,12.50
2022-09-09T01:06:33.049Z,12.40
2022-09-09T01:09:39.779Z,12.70
2022-09-09T01:12:25.866Z,11.10
2022-09-09T01:15:11.894Z,10.70
2022-09-09T01:17:46.294Z,10.50
2022-09-09T01:20:14.779Z,11.30
2022-09-09T01:24:19.174Z,8.50
2022-09-09T01:27:11.865Z,12.50
2022-09-09T01:29:40.727Z,9.00
2022-09-09T01:32:50.210Z,13.40
2022-09-09T01:35:55.732Z,14.90
2022-09-09T01:38:26.933Z,13.80
2022-09-09T01:40:56.545Z,13.10
2022-09-09T01:43:31.490Z,10.40
2022-09-09T01:46:03.680Z,12.50
2022-09-09T01:48:33.537Z,15.10
2022-09-09T01:51:05.985Z,11.90
2022-09-09T01:53:34.947Z,12.80
2022-09-09T01:56:16.693Z,14.30
2022-09-09T01:59:23.686Z,13.70
2022-09-09T02:02:18.330Z,12.50
2022-09-09T02:05:29.720Z,11.90
2022-09-09T02:08:46.574Z,11.50
2022-09-09T02:11:24.929Z,12.90
2022-09-09T02:14:22.948Z,10.50
2022-09-09T02:17:05.486Z,13.80
2022-09-09T02:19:59.482Z,12.10
2022-09-09T02:22:42.760Z,18.10
2022-09-09T02:25:15.950Z,15.80
2022-09-09T02:27:48.041Z,13.30
2022-09-09T02:30:17.190Z,18.00
2022-09-09T02:32:58.129Z,18.20
2022-09-09T02:35:38.545Z,10.90
2022-09-09T02:38:13.459Z,20.50
2022-09-09T02:40:43.170Z,13.10
2022-09-09T02:43:11.781Z,17.50
2022-09-09T02:46:04.931Z,10.80
2022-09-09T02:48:53.702Z,17.40
2022-09-09T02:51:33.769Z,15.00
2022-09-09T02:54:29.534Z,15.00
2022-09-09T02:57:09.315Z,22.40
2022-09-09T02:59:41.003Z,20.70
2022-09-09T03:02:12.586Z,17.60
2022-09-09T03:04:45.645Z,18.10
2022-09-09T03:07:15.151Z,21.30
2022-09-09T03:09:44.550Z,22.40
2022-09-09T03:12:13.690Z,19.30
2022-09-09T03:14:42.391Z,19.10
2022-09-09T03:17:10.981Z,19.20
2022-09-09T03:19:45.294Z,18.40
2022-09-09T03:22:14.940Z,17.10
2022-09-09T03:24:44.450Z,18.10
2022-09-09T03:27:13.089Z,14.60
2022-09-09T03:29:42.204Z,24.70
2022-09-09T03:32:14.765Z,17.80
2022-09-09T03:34:43.354Z,15.60
2022-09-09T03:37:14.156Z,22.00
2022-09-09T03:39:43.014Z,20.80
2022-09-09T03:42:21.212Z,21.90
2022-09-09T03:44:52.705Z,13.90
2022-09-09T03:47:23.183Z,16.70
2022-09-09T03:49:56.576Z,15.60
2022-09-09T03:54:59.785Z,14.50
2022-09-09T03:57:28.506Z,16.90
2022-09-09T03:59:59.986Z,20.40
2022-09-09T04:02:29.914Z,12.40
2022-09-09T04:04:58.653Z,16.40
2022-09-09T04:07:28.612Z,15.50
2022-09-09T04:09:58.286Z,22.30
2022-09-09T04:12:28.083Z,23.30
2022-09-09T04:14:58.398Z,15.80
2022-09-09T04:17:27.726Z,16.00
2022-09-09T04:19:56.349Z,18.10
2022-09-09T04:22:25.121Z,15.60
2022-09-09T04:24:54.042Z,19.00
2022-09-09T04:27:22.794Z,20.60
2022-09-09T04:29:51.792Z,18.60
2022-09-09T04:32:20.422Z,19.10
2022-09-09T04:34:49.380Z,20.10
2022-09-09T04:37:18.435Z,20.10
2022-09-09T04:39:47.149Z,12.70
2022-09-09T04:42:15.656Z,16.80
2022-09-09T04:44:45.036Z,15.90
2022-09-09T04:47:14.318Z,13.20
2022-09-09T04:49:42.885Z,13.20
2022-09-09T04:52:11.611Z,20.10
2022-09-09T04:54:40.236Z,17.40
2022-09-09T04:57:15.261Z,18.10
2022-09-09T04:59:47.212Z,16.80
2022-09-09T05:02:16.789Z,19.20
2022-09-09T05:04:46.122Z,13.90
2022-09-09T05:07:16.089Z,17.80
2022-09-09T05:09:45.805Z,22.70
2022-09-09T05:12:14.436Z,23.00
2022-09-09T05:14:49.819Z,23.00
2022-09-09T05:17:19.107Z,23.20
2022-09-09T05:19:47.891Z,15.20
2022-09-09T05:22:24.317Z,24.80
2022-09-09T05:24:53.995Z,14.70
2022-09-09T05:27:22.911Z,19.20
2022-09-09T05:29:51.894Z,13.10
2022-09-09T05:32:20.609Z,19.50
2022-09-09T05:34:50.226Z,13.20
2022-09-09T05:37:20.073Z,16.80
2022-09-09T05:39:48.775Z,16.10
2022-09-09T05:42:18.984Z,15.40
2022-09-09T05:44:47.509Z,17.70
2022-09-09T05:47:16.464Z,13.30
2022-09-09T05:49:45.024Z,9.30
2022-09-09T05:52:13.593Z,10.30
2022-09-09T05:54:43.370Z,12.50
2022-09-09T05:57:11.943Z,15.90
2022-09-09T05:59:40.584Z,13.20
2022-09-09T06:02:10.583Z,15.30
2022-09-09T06:04:39.863Z,10.80
2022-09-09T06:07:08.545Z,11.70
2022-09-09T06:09:37.395Z,12.80
2022-09-09T06:12:06.507Z,9.60
2022-09-09T06:14:36.284Z,8.90
2022-09-09T06:17:06.295Z,12.00
2022-09-09T06:19:35.139Z,11.40
2022-09-09T06:22:03.780Z,11.50
2022-09-09T06:24:34.102Z,11.60
2022-09-09T06:27:03.138Z,10.90
2022-09-09T06:29:35.104Z,15.50
2022-09-09T06:32:04.745Z,13.50
2022-09-09T06:34:33.663Z,8.10
2022-09-09T06:37:02.323Z,10.30
2022-09-09T06:39:38.370Z,14.70
2022-09-09T06:42:10.034Z,15.60
2022-09-09T06:44:47.285Z,9.10
2022-09-09T06:47:23.198Z,12.80
2022-09-09T06:49:52.355Z,9.80
2022-09-09T06:52:21.169Z,9.30
2022-09-09T06:54:49.851Z,13.10
2022-09-09T06:57:36.535Z,11.00
2022-09-09T07:00:07.930Z,8.50
2022-09-09T07:02:40.838Z,12.10
2022-09-09T07:05:10.904Z,9.20
2022-09-09T07:07:39.514Z,9.20
2022-09-09T07:10:09.059Z,7.40
2022-09-09T07:12:38.764Z,6.90
2022-09-09T07:15:07.805Z,6.20
2022-09-09T07:17:36.443Z,11.20
2022-09-09T07:20:05.745Z,7.70
2022-09-09T07:22:34.717Z,7.40
2022-09-09T07:25:05.153Z,7.90
2022-09-09T07:27:34.469Z,14.70
2022-09-09T07:30:03.734Z,11.40
2022-09-09T07:32:34.514Z,11.10
2022-09-09T07:35:03.984Z,8.80
2022-09-09T07:37:32.707Z,10.00
2022-09-09T07:40:01.861Z,10.10
2022-09-09T07:42:32.327Z,10.30
2022-09-09T07:45:00.950Z,9.50
2022-09-09T07:47:29.643Z,8.50
2022-09-09T07:49:59.937Z,9.50
2022-09-09T07:52:30.889Z,9.30
2022-09-09T07:55:03.281Z,7.80
2022-09-09T07:57:32.996Z,13.50
2022-09-09T08:00:01.917Z,14.70
2022-09-09T08:02:30.576Z,7.40
2022-09-09T08:04:59.135Z,8.50
2022-09-09T08:07:28.228Z,5.10
2022-09-09T08:09:56.872Z,8.10
2022-09-09T08:12:29.704Z,8.10
2022-09-09T08:14:58.387Z,8.50
2022-09-09T08:17:30.097Z,8.90
2022-09-09T08:20:06.255Z,8.50
2022-09-09T08:22:35.511Z,7.70
2022-09-09T08:25:07.527Z,4.70
2022-09-09T08:27:38.331Z,7.60
2022-09-09T08:30:07.501Z,9.90
2022-09-09T08:32:37.310Z,12.70
2022-09-09T08:35:08.344Z,9.70
2022-09-09T08:37:37.135Z,6.80
2022-09-09T08:40:07.038Z,8.50
2022-09-09T08:42:53.147Z,10.60
2022-09-09T08:46:12.853Z,5.80
2022-09-09T08:49:14.846Z,5.90
2022-09-09T08:51:49.173Z,5.10
2022-09-09T08:54:30.135Z,8.70
2022-09-09T08:57:16.140Z,5.80
2022-09-09T08:59:44.936Z,11.00
2022-09-09T09:02:51.602Z,4.50
2022-09-09T09:06:07.948Z,9.00
2022-09-09T09:08:45.598Z,8.20
2022-09-09T09:11:14.306Z,5.80
2022-09-09T09:14:13.271Z,6.60
2022-09-09T09:16:49.104Z,10.50
2022-09-09T09:19:19.296Z,12.30
2022-09-09T09:22:08.471Z,8.30
2022-09-09T09:24:54.784Z,9.60
2022-09-09T09:27:37.534Z,13.10
2022-09-09T09:30:30.428Z,11.70
2022-09-09T09:33:16.199Z,10.00
2022-09-09T09:35:44.943Z,5.30
2022-09-09T09:41:14.847Z,7.80
2022-09-09T09:43:43.796Z,7.90
2022-09-09T09:46:26.835Z,8.00
2022-09-09T09:49:06.764Z,5.70
2022-09-09T09:51:36.821Z,6.20
2022-09-09T09:54:26.035Z,6.40
2022-09-09T09:56:56.371Z,6.50
2022-09-09T09:59:39.238Z,4.60
2022-09-09T10:02:28.353Z,10.00
2022-09-09T10:05:23.165Z,10.30
2022-09-09T10:08:11.711Z,6.90
2022-09-09T10:11:08.872Z,11.90
2022-09-09T10:13:58.985Z,8.50
2022-09-09T10:16:53.556Z,8.60
2022-09-09T10:19:34.829Z,10.60
2022-09-09T10:22:32.636Z,7.90
2022-09-09T10:25:27.644Z,7.50
2022-09-09T10:28:40.550Z,7.90
2022-09-09T10:31:26.386Z,6.60
2022-09-09T10:34:43.579Z,11.30
2022-09-09T10:37:36.651Z,8.00
2022-09-09T10:40:34.367Z,6.00
2022-09-09T10:43:14.898Z,11.20
2022-09-09T10:46:05.936Z,9.10
2022-09-09T10:48:50.992Z,8.30
2022-09-09T10:51:28.583Z,7.80
2022-09-09T10:54:12.968Z,7.70
2022-09-09T10:56:47.100Z,8.50
2022-09-09T10:59:30.350Z,8.30
2022-09-09T11:02:14.288Z,5.30
2022-09-09T11:04:48.560Z,5.50
2022-09-09T11:07:36.594Z,12.40
2022-09-09T11:10:31.510Z,8.20
2022-09-09T11:13:07.170Z,7.60
2022-09-09T11:15:52.410Z,9.80
2022-09-09T11:18:24.239Z,10.00
2022-09-09T11:21:03.248Z,10.30
2022-09-09T11:23:48.081Z,9.70
2022-09-09T11:26:38.616Z,6.60
2022-09-09T11:29:38.283Z,9.90
2022-09-09T11:32:31.902Z,10.80
2022-09-09T11:36:08.457Z,8.20
2022-09-09T11:38:52.923Z,11.20
2022-09-09T11:41:23.034Z,9.00
2022-09-09T11:43:53.652Z,6.30
2022-09-09T11:46:35.702Z,6.60
2022-09-09T11:49:08.402Z,6.60
2022-09-09T11:51:36.889Z,6.20
2022-09-09T11:54:33.635Z,7.50
2022-09-09T11:57:05.890Z,7.10
2022-09-09T11:59:34.679Z,11.90
2022-09-09T12:02:27.754Z,4.70
2022-09-09T12:05:10.148Z,7.50
2022-09-09T12:08:00.371Z,5.40
2022-09-09T12:10:41.234Z,8.50
2022-09-09T12:13:23.263Z,6.10
2022-09-09T12:15:59.155Z,8.90
2022-09-09T12:18:37.904Z,9.40
2022-09-09T12:21:23.080Z,6.60
2022-09-09T12:23:57.201Z,9.40
2022-09-09T12:26:55.090Z,5.30
2022-09-09T12:29:42.984Z,6.40
2022-09-09T12:32:23.262Z,6.70
2022-09-09T12:35:08.553Z,8.00
2022-09-09T12:37:38.371Z,6.80
2022-09-09T12:40:28.652Z,14.70
2022-09-09T12:42:57.351Z,7.10
2022-09-09T12:45:32.504Z,12.50
2022-09-09T12:48:13.244Z,15.20
2022-09-09T12:50:54.259Z,9.50
2022-09-09T12:53:37.317Z,10.80
2022-09-09T12:56:20.076Z,7.40
2022-09-09T12:58:55.289Z,7.20
2022-09-09T13:01:28.484Z,10.20
2022-09-09T13:03:58.111Z,5.70
2022-09-09T13:06:30.984Z,7.10
2022-09-09T13:09:03.424Z,6.90
2022-09-09T13:12:08.592Z,6.50
2022-09-09T13:14:41.081Z,10.70
2022-09-09T13:17:23.684Z,10.20
2022-09-09T13:19:54.097Z,13.60
2022-09-09T13:22:37.298Z,10.60
2022-09-09T13:25:12.727Z,12.50
2022-09-09T13:27:53.544Z,10.80
2022-09-09T13:30:27.315Z,10.90
2022-09-09T13:33:10.860Z,8.00
2022-09-09T13:36:06.774Z,9.60
2022-09-09T13:38:44.613Z,12.40
2022-09-09T13:41:22.739Z,6.10
2022-09-09T13:43:53.248Z,9.00
2022-09-09T13:46:42.571Z,9.10
2022-09-09T13:49:11.277Z,8.10
2022-09-09T13:51:50.258Z,10.50
2022-09-09T13:54:21.954Z,12.10
2022-09-09T13:56:50.945Z,10.30
2022-09-09T13:59:21.098Z,11.40
2022-09-09T14:01:53.627Z,12.00
2022-09-09T14:04:22.336Z,9.70
2022-09-09T14:06:51.941Z,12.60
2022-09-09T14:09:20.619Z,9.00
2022-09-09T14:11:49.105Z,14.30
2022-09-09T14:14:17.593Z,15.30
2022-09-09T14:16:46.525Z,17.80
2022-09-09T14:19:15.114Z,9.80
2022-09-09T14:21:43.860Z,17.80
2022-09-09T14:24:13.485Z,8.80
2022-09-09T14:26:42.142Z,10.40
2022-09-09T14:29:10.877Z,11.40
2022-09-09T14:31:39.404Z,10.30
2022-09-09T14:34:07.885Z,11.10
2022-09-09T14:36:36.490Z,13.30
2022-09-09T14:39:05.767Z,12.40
2022-09-09T14:41:34.807Z,7.90
2022-09-09T14:44:03.606Z,10.20
2022-09-09T14:46:33.679Z,9.20
2022-09-09T14:49:02.224Z,10.60
2022-09-09T14:51:30.718Z,17.20
2022-09-09T14:54:00.725Z,13.00
2022-09-09T14:56:32.365Z,11.20
2022-09-09T14:59:04.656Z,11.60
2022-09-09T15:01:33.425Z,10.60
2022-09-09T15:04:06.383Z,10.70
2022-09-09T15:06:40.333Z,13.60
2022-09-09T15:09:09.430Z,13.70
2022-09-09T15:11:39.143Z,11.80
2022-09-09T15:14:09.935Z,9.70
2022-09-09T15:16:40.233Z,9.80
2022-09-09T15:19:10.370Z,14.30
2022-09-09T15:21:39.486Z,15.60
2022-09-09T15:24:09.574Z,16.90
2022-09-09T15:26:39.729Z,21.30
2022-09-09T15:29:09.475Z,16.90
2022-09-09T15:31:38.809Z,20.60
2022-09-09T15:34:08.856Z,15.90
2022-09-09T15:36:47.207Z,18.90
2022-09-09T15:39:18.528Z,16.70
2022-09-09T15:41:49.266Z,10.90
2022-09-09T15:44:20.179Z,11.40
2022-09-09T15:46:54.956Z,14.60
2022-09-09T15:49:26.679Z,13.50
2022-09-09T15:51:58.839Z,15.00
2022-09-09T15:54:27.575Z,10.80
2022-09-09T15:57:00.953Z,14.70
2022-09-09T15:59:32.279Z,18.70
2022-09-09T16:02:01.480Z,14.90
2022-09-09T16:04:30.981Z,13.80
2022-09-09T16:07:06.818Z,13.70
2022-09-09T16:09:36.555Z,15.40
2022-09-09T16:12:10.979Z,12.00
2022-09-09T16:14:39.981Z,12.80
2022-09-09T16:17:08.889Z,15.10
2022-09-09T16:19:37.418Z,16.40
2022-09-09T16:22:07.719Z,14.50
2022-09-09T16:24:36.299Z,19.60
2022-09-09T16:27:05.166Z,14.50
2022-09-09T16:29:33.928Z,14.90
2022-09-09T16:32:04.261Z,14.60
2022-09-09T16:34:34.828Z,10.50
2022-09-09T16:37:03.659Z,15.80
2022-09-09T16:39:32.197Z,12.00
2022-09-09T16:42:00.999Z,14.80
2022-09-09T16:44:29.626Z,11.80
2022-09-09T16:47:00.753Z,14.10
2022-09-09T16:49:30.362Z,17.70
2022-09-09T16:52:01.365Z,11.20
2022-09-09T16:54:30.285Z,16.10
2022-09-09T16:57:01.288Z,15.10
2022-09-09T16:59:29.821Z,17.40
2022-09-09T17:01:58.515Z,16.60
2022-09-09T17:04:29.099Z,22.30
2022-09-09T17:06:58.684Z,12.70
2022-09-09T17:09:32.603Z,13.40
2022-09-09T17:12:02.107Z,13.80
2022-09-09T17:14:32.353Z,18.50
2022-09-09T17:17:14.014Z,11.60
2022-09-09T17:19:51.403Z,11.00
2022-09-09T17:22:21.251Z,11.10
2022-09-09T17:24:49.908Z,11.10
2022-09-09T17:27:18.637Z,12.30
2022-09-09T17:29:48.161Z,10.80
2022-09-09T17:32:16.677Z,15.00
2022-09-09T17:34:45.797Z,10.70
2022-09-09T17:37:14.386Z,10.30
2022-09-09T17:39:42.923Z,12.40
2022-09-09T17:42:11.491Z,13.60
2022-09-09T17:44:41.228Z,9.50
2022-09-09T17:47:09.707Z,9.60
2022-09-09T17:49:38.325Z,10.00
2022-09-09T17:52:07.084Z,9.90
2022-09-09T17:54:35.958Z,9.90
2022-09-09T17:57:04.877Z,9.90
2022-09-09T17:59:33.530Z,9.60
2022-09-09T18:02:02.119Z,11.20
2022-09-09T18:04:30.808Z,9.50
2022-09-09T18:06:59.420Z,12.80
2022-09-09T18:09:29.423Z,11.30
2022-09-09T18:11:59.207Z,11.20
2022-09-09T18:14:33.068Z,12.50
2022-09-09T18:17:04.242Z,12.40
2022-09-09T18:19:33.401Z,11.10
2022-09-09T18:22:05.399Z,8.90
2022-09-09T18:24:34.664Z,8.70
2022-09-09T18:27:03.143Z,11.10
2022-09-09T18:29:31.625Z,10.80
2022-09-09T18:32:00.319Z,11.40
2022-09-09T18:34:30.351Z,11.50
2022-09-09T18:36:59.103Z,9.30
2022-09-09T18:39:30.134Z,9.90
2022-09-09T18:42:01.701Z,15.50
2022-09-09T18:44:35.829Z,12.60
2022-09-09T18:47:04.677Z,17.60
2022-09-09T18:49:33.692Z,14.30
2022-09-09T18:52:03.484Z,14.50
2022-09-09T18:54:34.197Z,12.20
2022-09-09T18:57:02.988Z,13.70
2022-09-09T18:59:31.545Z,16.60
2022-09-09T19:02:00.187Z,14.70
2022-09-09T19:04:28.923Z,11.60
2022-09-09T19:06:58.443Z,14.50
2022-09-09T19:09:34.109Z,14.10
2022-09-09T19:12:03.220Z,18.00
2022-09-09T19:14:32.099Z,16.60
2022-09-09T19:17:00.763Z,14.20
2022-09-09T19:19:32.968Z,16.20
2022-09-09T19:22:07.710Z,18.50
2022-09-09T19:24:37.746Z,12.50
2022-09-09T19:27:07.251Z,12.80
2022-09-09T19:29:39.599Z,13.20
2022-09-09T19:34:59.676Z,12.60
2022-09-09T19:37:28.186Z,13.90
2022-09-09T19:39:56.698Z,11.00
2022-09-09T19:42:26.165Z,9.70
2022-09-09T19:44:55.265Z,11.40
2022-09-09T19:47:24.243Z,9.70
2022-09-09T19:49:52.863Z,10.60
2022-09-09T19:52:21.394Z,12.00
2022-09-09T19:54:49.894Z,15.00
2022-09-09T19:57:19.818Z,11.10
2022-09-09T19:59:48.770Z,9.60
2022-09-09T20:02:17.364Z,9.00
2022-09-09T20:04:46.051Z,9.20
2022-09-09T20:07:15.149Z,10.40
2022-09-09T20:09:43.917Z,8.20
2022-09-09T20:12:12.509Z,11.30
2022-09-09T20:14:41.028Z,9.30
2022-09-09T20:17:10.365Z,8.30
2022-09-09T20:19:40.117Z,6.60
2022-09-09T20:22:08.793Z,10.10
2022-09-09T20:24:37.418Z,7.30
2022-09-09T20:27:07.252Z,7.70
2022-09-09T20:29:36.547Z,10.00
2022-09-09T20:32:06.031Z,8.10
2022-09-09T20:34:38.043Z,8.10
2022-09-09T20:37:06.619Z,12.70
2022-09-09T20:39:36.252Z,12.60
2022-09-09T20:42:05.466Z,12.50
2022-09-09T20:44:34.131Z,11.10
2022-09-09T20:47:06.730Z,8.30
2022-09-09T20:52:07.088Z,11.40
2022-09-09T20:54:37.742Z,10.70
2022-09-09T20:57:07.326Z,12.90
2022-09-09T20:59:36.090Z,9.90
2022-09-09T21:02:04.788Z,8.70
2022-09-09T21:04:33.442Z,9.20
2022-09-09T21:07:02.679Z,8.40
2022-09-09T21:09:31.218Z,12.50
2022-09-09T21:11:59.781Z,12.40
2022-09-09T21:14:28.240Z,7.60
2022-09-09T21:16:56.961Z,8.30
2022-09-09T21:19:25.598Z,8.30
2022-09-09T21:21:54.517Z,9.30
2022-09-09T21:24:23.098Z,7.40
2022-09-09T21:26:51.638Z,8.40
2022-09-09T21:29:20.234Z,7.00
2022-09-09T21:31:48.834Z,7.30
2022-09-09T21:34:18.567Z,9.10
2022-09-09T21:36:47.061Z,10.80
2022-09-09T21:39:15.564Z,12.90
2022-09-09T21:41:44.248Z,8.20
2022-09-09T21:44:14.586Z,11.90
2022-09-09T21:46:44.162Z,6.20
2022-09-09T21:49:13.395Z,8.10
2022-09-09T21:51:41.981Z,8.90
2022-09-09T21:54:10.701Z,4.90
2022-09-09T21:56:39.767Z,7.50
2022-09-09T21:59:08.305Z,9.10
2022-09-09T22:01:36.978Z,11.20
2022-09-09T22:04:05.649Z,7.10
2022-09-09T22:06:34.404Z,8.70
2022-09-09T22:09:03.947Z,10.60
2022-09-09T22:11:32.512Z,9.80
2022-09-09T22:14:02.486Z,5.30
2022-09-09T22:16:32.056Z,9.80
2022-09-09T22:19:02.038Z,4.70
2022-09-09T22:21:33.431Z,8.60
2022-09-09T22:24:05.506Z,10.00
2022-09-09T22:26:36.549Z,8.20
2022-09-09T22:29:07.061Z,4.80
2022-09-09T22:31:36.799Z,8.10
2022-09-09T22:34:07.577Z,9.50
2022-09-09T22:36:36.905Z,10.00
2022-09-09T22:39:05.854Z,6.50
2022-09-09T22:41:34.456Z,5.40
2022-09-09T22:44:03.365Z,5.00
2022-09-09T22:46:31.923Z,9.20
2022-09-09T22:49:03.619Z,6.20
2022-09-09T22:51:34.478Z,5.90
2022-09-09T22:54:04.898Z,4.20
2022-09-09T22:56:34.017Z,39.40
2022-09-09T22:59:02.481Z,3.70
2022-09-09T23:01:31.214Z,3.80
2022-09-09T23:04:00.010Z,4.20
2022-09-09T23:06:30.057Z,5.50
2022-09-09T23:09:01.907Z,6.40
2022-09-09T23:11:35.164Z,5.10
2022-09-09T23:14:07.745Z,5.70
2022-09-09T23:16:40.380Z,8.00
2022-09-09T23:19:15.386Z,5.90
2022-09-09T23:21:46.332Z,5.60
2022-09-09T23:24:17.830Z,4.10
2022-09-09T23:26:47.598Z,7.50
2022-09-09T23:29:16.233Z,5.30
2022-09-09T23:31:46.414Z,7.80
2022-09-09T23:34:15.098Z,6.80
2022-09-09T23:36:43.836Z,5.30
2022-09-09T23:39:13.427Z,6.60
2022-09-09T23:41:42.282Z,6.20
2022-09-09T23:44:12.952Z,6.70
2022-09-09T23:46:42.071Z,4.90
2022-09-09T23:49:11.509Z,5.80
2022-09-09T23:51:39.987Z,5.50
2022-09-09T23:54:10.012Z,4.40
2022-09-09T23:56:42.598Z,4.40
2022-09-09T23:59:11.387Z,6.20
